Time;durP1;ratioP1;P1;durP2;ratioP2;P2;SDS_P1;SDS_P2;PMS_P1;PMS_P2;Temp;Humidity;BMP_temperature;BMP_pressure;BME280_temperature;BME280_humidity;BME280_pressure;Samples;Min_cycle;Max_cycle;Signal;HPM_P1;HPM_P2
2022/09/17 00:01:36;;;;;;;1.90;1.20;;;;;;;10.16;100.00;153968.16;5046795;28;20507;-84
2022/09/17 00:04:04;;;;;;;2.07;1.37;;;;;;;10.14;100.00;153964.25;5047543;28;20448;-84
2022/09/17 00:06:32;;;;;;;2.27;0.70;;;;;;;10.12;100.00;153957.72;5031746;28;20426;-83
2022/09/17 00:08:59;;;;;;;1.47;0.90;;;;;;;10.09;100.00;153951.25;5052353;28;20446;-83
2022/09/17 00:11:29;;;;;;;1.50;1.10;;;;;;;10.10;100.00;153952.56;5082691;28;20447;-83
2022/09/17 00:13:57;;;;;;;1.73;1.00;;;;;;;10.09;100.00;153949.97;5094797;28;20540;-84
2022/09/17 00:16:29;;;;;;;1.70;1.30;;;;;;;10.08;100.00;153948.72;5103953;28;20453;-84
2022/09/17 00:18:57;;;;;;;1.40;0.90;;;;;;;10.08;100.00;153947.41;5090495;28;20520;-84
2022/09/17 00:21:24;;;;;;;1.40;1.10;;;;;;;10.06;100.00;153942.25;5050525;28;20470;-83
2022/09/17 00:23:54;;;;;;;1.83;1.20;;;;;;;10.07;100.00;153944.81;5045650;28;20475;-83
2022/09/17 00:26:21;;;;;;;1.60;1.30;;;;;;;10.04;100.00;153937.03;5081193;28;20960;-84
2022/09/17 00:28:49;;;;;;;1.93;1.00;;;;;;;10.04;100.00;153937.03;5036793;28;20551;-83
2022/09/17 00:31:16;;;;;;;1.33;1.07;;;;;;;10.05;100.00;153939.63;5046552;28;20566;-83
2022/09/17 00:33:44;;;;;;;1.80;1.40;;;;;;;10.02;100.00;153931.88;5031538;28;20443;-83
2022/09/17 00:36:11;;;;;;;1.80;1.30;;;;;;;10.01;100.00;153930.56;5032083;28;20427;-83
2022/09/17 00:38:37;;;;;;;1.50;1.10;;;;;;;9.92;100.00;153907.28;5043859;28;20498;-84
2022/09/17 00:41:05;;;;;;;1.87;1.20;;;;;;;9.93;100.00;153908.59;5030686;28;20893;-83
2022/09/17 00:43:37;;;;;;;1.80;1.50;;;;;;;9.94;100.00;153911.16;5082563;28;20876;-83
2022/09/17 00:46:06;;;;;;;1.50;1.20;;;;;;;9.91;100.00;153904.69;5047873;28;20440;-83
2022/09/17 00:48:33;;;;;;;2.37;1.33;;;;;;;9.92;100.00;153906.00;5101262;28;20855;-83
2022/09/17 00:51:01;;;;;;;2.20;1.23;;;;;;;9.89;100.00;153898.22;5071177;28;20450;-84
2022/09/17 00:53:29;;;;;;;1.70;1.27;;;;;;;9.87;100.00;153893.06;5063953;28;20471;-84
2022/09/17 00:55:59;;;;;;;3.50;1.33;;;;;;;9.89;100.00;153899.53;5046981;28;20490;-83
2022/09/17 00:58:26;;;;;;;1.80;1.30;;;;;;;9.91;100.00;153903.38;5083782;28;20441;-83
2022/09/17 01:00:53;;;;;;;1.83;1.50;;;;;;;9.94;100.00;153912.47;5050578;28;20462;-84
2022/09/17 01:03:20;;;;;;;1.90;1.07;;;;;;;9.93;100.00;153909.84;5082363;28;20431;-83
2022/09/17 01:05:49;;;;;;;1.93;1.73;;;;;;;9.91;100.00;153904.69;5050627;28;20530;-83
2022/09/17 01:08:25;;;;;;;1.73;1.53;;;;;;;9.87;100.00;153893.06;5043364;28;20459;-83
2022/09/17 01:11:16;;;;;;;2.53;1.40;;;;;;;9.87;100.00;153894.34;5044095;28;20454;-83
2022/09/17 01:13:52;;;;;;;1.83;1.40;;;;;;;9.85;100.00;153887.88;5061010;28;20439;-83
2022/09/17 01:16:24;;;;;;;2.27;1.60;;;;;;;9.75;100.00;153863.28;5078199;28;20462;-83
2022/09/17 01:19:01;;;;;;;1.70;1.33;;;;;;;9.73;100.00;153858.09;5047010;28;20553;-83
2022/09/17 01:21:37;;;;;;;2.40;1.63;;;;;;;9.69;100.00;153849.03;5040369;28;20569;-83
2022/09/17 01:24:43;;;;;;;1.90;1.57;;;;;;;9.68;100.00;153846.47;5054117;28;20509;-83
2022/09/17 01:28:00;;;;;;;2.07;1.30;;;;;;;9.66;100.00;153841.25;5079260;28;20466;-83
2022/09/17 01:31:00;;;;;;;1.77;1.40;;;;;;;9.66;100.00;153841.25;5026231;28;20434;-83
2022/09/17 01:33:32;;;;;;;2.90;1.50;;;;;;;9.63;100.00;153832.25;4983812;28;20536;-83
2022/09/17 01:36:05;;;;;;;1.80;1.60;;;;;;;9.59;100.00;153823.16;5047295;28;20869;-83
2022/09/17 01:38:35;;;;;;;2.40;1.67;;;;;;;9.56;100.00;153815.41;5084771;28;20438;-83
2022/09/17 01:41:06;;;;;;;1.77;1.63;;;;;;;9.54;100.00;153810.25;5054450;28;20555;-83
2022/09/17 01:43:36;;;;;;;1.80;1.23;;;;;;;9.54;100.00;153810.25;5085884;28;20453;-83
2022/09/17 01:46:09;;;;;;;5.53;2.27;;;;;;;9.53;100.00;153806.38;5052386;28;20511;-83
2022/09/17 01:48:40;;;;;;;3.03;1.63;;;;;;;9.50;100.00;153799.91;5036439;28;20856;-83
2022/09/17 01:51:09;;;;;;;5.53;2.57;;;;;;;9.51;100.00;153802.47;5048579;28;20461;-83
2022/09/17 01:53:39;;;;;;;1.77;1.53;;;;;;;9.48;100.00;153794.69;5053899;28;20455;-83
2022/09/17 01:56:06;;;;;;;2.50;1.47;;;;;;;9.51;100.00;153801.16;5071089;28;20538;-84
2022/09/17 01:58:36;;;;;;;2.23;1.60;;;;;;;9.52;100.00;153803.78;5047520;28;20439;-83
2022/09/17 02:01:07;;;;;;;4.00;2.10;;;;;;;9.51;100.00;153802.47;5085142;28;20667;-83
2022/09/17 02:03:36;;;;;;;2.37;1.97;;;;;;;9.49;100.00;153796.00;5052440;28;20420;-83
2022/09/17 02:06:08;;;;;;;2.70;1.93;;;;;;;9.54;100.00;153810.25;5033749;28;21016;-83
2022/09/17 02:08:37;;;;;;;3.17;2.00;;;;;;;9.56;100.00;153814.09;5066444;28;20469;-83
2022/09/17 02:11:08;;;;;;;3.50;2.03;;;;;;;9.53;100.00;153807.63;5050719;28;20450;-83
2022/09/17 02:13:39;;;;;;;2.13;1.47;;;;;;;9.54;100.00;153810.25;5085606;28;20475;-83
2022/09/17 02:16:11;;;;;;;2.70;2.07;;;;;;;9.58;100.00;153820.56;5053778;28;20427;-83
2022/09/17 02:18:42;;;;;;;2.33;1.90;;;;;;;9.58;100.00;153820.56;5050393;28;20496;-84
2022/09/17 02:21:14;;;;;;;3.40;2.27;;;;;;;9.57;100.00;153816.69;5053525;28;20482;-83
2022/09/17 02:23:48;;;;;;;2.43;2.00;;;;;;;9.55;100.00;153812.84;5053909;28;20432;-83
2022/09/17 02:26:18;;;;;;;4.00;1.80;;;;;;;9.61;100.00;153828.34;5040347;28;20450;-83
2022/09/17 02:28:49;;;;;;;3.17;2.00;;;;;;;9.61;100.00;153828.34;5033073;28;20793;-84
2022/09/17 02:31:17;;;;;;;2.00;1.80;;;;;;;9.56;100.00;153814.09;5064865;28;20485;-83
2022/09/17 02:33:47;;;;;;;2.30;1.67;;;;;;;9.53;100.00;153806.38;5053213;28;20485;-83
2022/09/17 02:36:14;;;;;;;3.03;2.13;;;;;;;9.47;100.00;153792.13;5049211;28;20448;-83
2022/09/17 02:38:43;;;;;;;3.40;2.03;;;;;;;9.50;100.00;153799.91;5068903;28;20451;-83
2022/09/17 02:41:15;;;;;;;4.00;2.17;;;;;;;9.47;100.00;153790.84;5073031;28;20483;-83
2022/09/17 02:43:50;;;;;;;6.63;2.00;;;;;;;9.51;100.00;153802.47;5085307;28;20945;-83
2022/09/17 02:46:35;;;;;;;2.77;2.00;;;;;;;9.53;100.00;153806.38;5036199;28;20459;-83
2022/09/17 02:49:25;;;;;;;2.10;1.63;;;;;;;9.54;100.00;153808.94;5032897;28;20466;-83
2022/09/17 02:51:58;;;;;;;2.77;1.70;;;;;;;9.58;100.00;153820.56;5029004;28;20451;-83
2022/09/17 02:54:28;;;;;;;3.10;1.80;;;;;;;9.56;100.00;153815.41;5064457;28;20763;-83
2022/09/17 02:57:02;;;;;;;3.00;2.00;;;;;;;9.56;100.00;153814.09;5066844;28;20448;-83
2022/09/17 02:59:33;;;;;;;2.73;2.07;;;;;;;9.57;100.00;153818.00;5053894;28;20521;-83
2022/09/17 03:02:05;;;;;;;3.20;1.90;;;;;;;9.53;100.00;153807.63;5053213;28;20474;-83
2022/09/17 03:04:33;;;;;;;4.53;1.90;;;;;;;9.50;100.00;153799.91;5039894;28;20458;-83
2022/09/17 03:07:01;;;;;;;2.03;1.63;;;;;;;9.46;100.00;153788.22;5033307;28;20486;-83
2022/09/17 03:09:27;;;;;;;2.73;2.03;;;;;;;9.43;100.00;153781.75;5037793;28;20840;-83
2022/09/17 03:11:54;;;;;;;2.37;1.77;;;;;;;9.42;100.00;153777.91;5099862;28;20446;-83
2022/09/17 03:14:20;;;;;;;3.83;1.93;;;;;;;9.39;100.00;153770.13;5074575;28;20447;-83
2022/09/17 03:16:47;;;;;;;3.20;1.93;;;;;;;9.32;100.00;153753.31;5052752;28;20459;-83
2022/09/17 03:19:15;;;;;;;6.97;2.27;;;;;;;9.31;100.00;153750.75;5038740;28;20858;-83
2022/09/17 03:21:42;;;;;;;2.37;1.63;;;;;;;9.28;100.00;153741.69;5064347;28;20553;-83
2022/09/17 03:24:10;;;;;;;3.20;2.53;;;;;;;9.25;100.00;153733.91;5064618;28;20928;-83
2022/09/17 03:26:37;;;;;;;2.00;1.73;;;;;;;9.22;100.00;153727.44;5064081;28;20511;-83
2022/09/17 03:29:03;;;;;;;2.40;1.97;;;;;;;9.21;100.00;153724.88;5078032;28;20473;-83
2022/09/17 03:31:30;;;;;;;3.87;1.70;;;;;;;9.18;100.00;153717.13;5084686;28;20473;-83
2022/09/17 03:33:57;;;;;;;2.70;1.90;;;;;;;9.17;100.00;153714.50;5070192;28;20533;-83
2022/09/17 03:36:25;;;;;;;2.57;1.80;;;;;;;9.17;100.00;153714.50;5096801;28;20870;-83
2022/09/17 03:38:54;;;;;;;4.00;1.90;;;;;;;9.15;100.00;153709.34;5049921;28;20447;-83
2022/09/17 03:41:20;;;;;;;3.57;1.97;;;;;;;9.18;100.00;153717.13;5051419;28;20466;-83
2022/09/17 03:43:47;;;;;;;3.60;2.37;;;;;;;9.18;100.00;153718.41;5051750;28;20438;-83
2022/09/17 03:46:14;;;;;;;2.50;1.60;;;;;;;9.14;100.00;153706.75;5044488;28;20786;-83
2022/09/17 03:48:40;;;;;;;6.60;1.70;;;;;;;9.15;100.00;153709.34;5035576;28;20984;-83
2022/09/17 03:51:07;;;;;;;4.17;1.70;;;;;;;9.15;100.00;153709.34;5051491;28;20549;-83
2022/09/17 03:53:35;;;;;;;2.63;1.73;;;;;;;9.14;100.00;153708.03;5052526;28;20454;-83
2022/09/17 03:56:03;;;;;;;2.47;1.50;;;;;;;9.13;100.00;153705.44;5039212;28;20495;-83
2022/09/17 03:58:30;;;;;;;3.20;2.10;;;;;;;9.11;100.00;153698.97;5032016;28;20486;-83
2022/09/17 04:00:57;;;;;;;3.93;2.00;;;;;;;9.09;100.00;153695.13;5063588;28;20452;-83
2022/09/17 04:03:25;;;;;;;14.43;3.27;;;;;;;9.09;100.00;153695.13;5031427;28;20489;-83
2022/09/17 04:05:52;;;;;;;6.23;2.10;;;;;;;9.09;100.00;153693.81;5036742;28;20807;-83
2022/09/17 04:08:19;;;;;;;2.83;1.70;;;;;;;9.08;100.00;153691.25;5051781;28;20428;-83
2022/09/17 04:10:48;;;;;;;3.80;2.03;;;;;;;9.07;100.00;153689.97;5068682;28;20456;-83
2022/09/17 04:13:17;;;;;;;3.43;1.60;;;;;;;9.05;100.00;153683.50;5067213;28;20551;-83
2022/09/17 04:15:44;;;;;;;2.00;1.57;;;;;;;8.99;100.00;153669.25;5051136;28;20489;-83
2022/09/17 04:18:11;;;;;;;1.53;1.40;;;;;;;8.99;100.00;153667.97;5049154;28;20463;-83
2022/09/17 04:20:38;;;;;;;3.00;1.60;;;;;;;8.97;100.00;153662.81;5031631;28;20874;-83
2022/09/17 04:23:05;;;;;;;2.67;1.50;;;;;;;8.95;100.00;153657.59;5038383;28;20471;-83
2022/09/17 04:25:32;;;;;;;2.27;1.40;;;;;;;8.99;100.00;153667.97;5083623;28;20517;-83
2022/09/17 04:28:00;;;;;;;2.97;2.00;;;;;;;8.94;100.00;153655.03;5080337;28;20462;-84
2022/09/17 04:30:27;;;;;;;3.70;1.97;;;;;;;8.92;100.00;153651.13;5085425;28;20472;-83
2022/09/17 04:32:53;;;;;;;2.50;2.00;;;;;;;8.94;100.00;153656.34;5070198;28;20430;-83
2022/09/17 04:35:20;;;;;;;2.37;1.63;;;;;;;8.91;100.00;153648.56;5071313;28;20434;-83
2022/09/17 04:37:52;;;;;;;4.47;2.03;;;;;;;8.92;100.00;153649.88;5043744;28;20483;-83
2022/09/17 04:40:19;;;;;;;2.70;1.70;;;;;;;8.87;100.00;153636.94;5057972;28;20886;-83
2022/09/17 04:42:45;;;;;;;3.53;1.63;;;;;;;8.91;100.00;153647.28;5051778;28;20463;-83
2022/09/17 04:45:13;;;;;;;3.27;1.80;;;;;;;8.93;100.00;153652.44;5050007;28;20423;-83
2022/09/17 04:47:40;;;;;;;3.00;1.73;;;;;;;8.94;100.00;153656.34;5049244;28;20447;-83
2022/09/17 04:50:07;;;;;;;2.77;2.00;;;;;;;8.97;100.00;153662.81;5055236;28;20666;-83
2022/09/17 04:52:34;;;;;;;4.13;1.87;;;;;;;8.95;100.00;153657.59;5045058;28;20707;-83
2022/09/17 04:55:01;;;;;;;3.33;2.10;;;;;;;8.94;100.00;153655.03;5050185;28;20459;-83
2022/09/17 04:57:27;;;;;;;6.70;2.00;;;;;;;8.99;100.00;153669.25;5083588;28;20460;-83
2022/09/17 04:59:54;;;;;;;4.27;2.57;;;;;;;8.97;100.00;153664.09;5054989;28;20484;-82
2022/09/17 05:02:22;;;;;;;2.70;1.90;;;;;;;8.96;100.00;153660.19;5052772;28;20502;-82
2022/09/17 05:04:49;;;;;;;4.70;2.17;;;;;;;8.93;100.00;153653.72;5087903;28;20446;-82
2022/09/17 05:07:16;;;;;;;2.30;2.10;;;;;;;8.88;100.00;153639.50;5088171;28;20450;-82
2022/09/17 05:09:52;;;;;;;3.40;2.20;;;;;;;8.88;100.00;153639.50;5053632;28;20537;-82
2022/09/17 05:12:20;;;;;;;4.10;2.00;;;;;;;8.87;100.00;153638.22;5053855;28;20446;-83
2022/09/17 05:14:47;;;;;;;3.87;2.23;;;;;;;8.92;100.00;153649.88;5088506;28;20439;-83
2022/09/17 05:17:13;;;;;;;4.20;2.77;;;;;;;8.92;100.00;153649.88;5055850;28;20461;-83
2022/09/17 05:19:41;;;;;;;5.20;2.13;;;;;;;8.93;100.00;153652.44;5052263;28;20454;-83
2022/09/17 05:22:08;;;;;;;4.10;2.30;;;;;;;8.96;100.00;153660.19;5054846;28;20871;-83
2022/09/17 05:24:38;;;;;;;2.70;2.20;;;;;;;8.95;100.00;153657.59;5069945;28;20797;-82
2022/09/17 05:27:06;;;;;;;3.77;2.40;;;;;;;8.94;100.00;153656.34;5084437;28;20533;-83
2022/09/17 05:29:33;;;;;;;3.17;2.17;;;;;;;8.94;100.00;153655.03;5082383;28;20450;-83
2022/09/17 05:32:00;;;;;;;5.73;2.87;;;;;;;8.93;100.00;153653.72;5025709;28;20452;-82
2022/09/17 05:34:26;;;;;;;4.27;2.33;;;;;;;8.93;100.00;153653.72;5042306;28;20475;-83
2022/09/17 05:36:54;;;;;;;4.57;2.30;;;;;;;8.92;100.00;153651.13;5057866;28;20459;-82
2022/09/17 05:39:24;;;;;;;6.80;2.70;;;;;;;8.95;100.00;153658.91;5045375;28;20807;-82
2022/09/17 05:41:51;;;;;;;3.43;2.30;;;;;;;8.97;100.00;153662.81;5039661;28;20479;-82
2022/09/17 05:44:18;;;;;;;3.70;2.47;;;;;;;8.94;100.00;153655.03;5035571;28;20439;-83
2022/09/17 05:46:45;;;;;;;3.10;2.50;;;;;;;9.00;100.00;153671.81;5049232;28;20462;-83
2022/09/17 05:49:11;;;;;;;3.97;2.10;;;;;;;9.05;100.00;153684.75;5086478;28;20475;-82
2022/09/17 05:51:38;;;;;;;3.20;2.43;;;;;;;9.09;100.00;153693.81;5053342;28;20455;-82
2022/09/17 05:54:07;;;;;;;4.37;2.17;;;;;;;9.07;100.00;153689.97;5054841;28;20446;-82
2022/09/17 05:56:33;;;;;;;4.07;2.17;;;;;;;9.15;100.00;153710.66;5078601;28;20489;-83
2022/09/17 05:59:00;;;;;;;4.00;2.30;;;;;;;9.20;100.00;153722.28;5051863;28;20455;-82
2022/09/17 06:01:27;;;;;;;3.43;2.30;;;;;;;9.28;100.00;153741.69;5052232;28;20455;-83
2022/09/17 06:03:54;;;;;;;3.67;2.40;;;;;;;9.38;100.00;153767.53;5038725;28;20505;-83
2022/09/17 06:06:20;;;;;;;4.37;2.90;;;;;;;9.46;100.00;153789.53;5085579;28;20516;-83
2022/09/17 06:08:47;;;;;;;9.40;3.30;;;;;;;9.60;100.00;153825.78;5049667;28;20435;-83
2022/09/17 06:11:15;;;;;;;4.20;2.57;;;;;;;9.91;100.00;153904.69;5044800;28;20467;-83
2022/09/17 06:13:42;;;;;;;6.77;2.60;;;;;;;10.02;100.00;153931.88;5043087;28;20448;-83
2022/09/17 06:16:09;;;;;;;3.10;2.30;;;;;;;10.05;100.00;153939.63;5049905;28;20450;-83
2022/09/17 06:18:36;;;;;;;4.13;2.80;;;;;;;10.08;100.00;153947.41;5038314;28;20451;-83
2022/09/17 06:21:04;;;;;;;4.00;3.00;;;;;;;10.09;100.00;153951.25;5064831;28;20497;-83
2022/09/17 06:23:34;;;;;;;5.03;2.70;;;;;;;10.13;100.00;153961.69;5052163;28;20529;-83
2022/09/17 06:26:01;;;;;;;3.10;2.47;;;;;;;10.25;100.00;153992.75;5053360;28;20427;-83
2022/09/17 06:28:29;;;;;;;4.53;2.27;;;;;;;10.23;100.00;153987.56;5045695;28;20578;-83
2022/09/17 06:31:00;;;;;;;3.00;2.47;;;;;;;10.32;100.00;154010.91;5050038;28;20467;-83
2022/09/17 06:33:26;;;;;;;3.13;2.43;;;;;;;10.38;100.00;154025.09;5035240;28;20464;-83
2022/09/17 06:35:56;;;;;;;2.40;2.20;;;;;;;10.46;100.00;154045.81;5034918;28;20431;-83
2022/09/17 06:38:23;;;;;;;3.60;2.70;;;;;;;10.57;100.00;154074.31;5051497;28;20578;-83
2022/09/17 06:40:50;;;;;;;3.87;2.50;;;;;;;10.57;100.00;154074.31;5052362;28;20447;-83
2022/09/17 06:43:17;;;;;;;2.67;2.37;;;;;;;10.55;100.00;154069.13;5085237;28;20811;-83
2022/09/17 06:45:51;;;;;;;4.90;2.67;;;;;;;10.44;99.46;154040.63;5085959;28;20481;-83
2022/09/17 06:48:18;;;;;;;2.93;2.63;;;;;;;10.45;100.00;154043.25;5049301;28;20560;-83
2022/09/17 06:50:44;;;;;;;3.33;2.40;;;;;;;10.45;100.00;154043.25;5083941;28;20509;-83
2022/09/17 06:53:11;;;;;;;3.37;2.80;;;;;;;10.43;100.00;154036.78;5052812;28;20530;-83
2022/09/17 06:55:38;;;;;;;2.93;2.23;;;;;;;10.43;100.00;154036.78;5053325;28;20431;-83
2022/09/17 06:58:05;;;;;;;2.70;2.50;;;;;;;10.39;100.00;154027.69;5083894;28;20462;-75
2022/09/17 07:00:31;;;;;;;4.00;2.47;;;;;;;10.31;100.00;154007.00;5071684;28;20440;-76
2022/09/17 07:03:00;;;;;;;3.27;2.40;;;;;;;10.27;100.00;153996.66;5047743;28;20468;-75
2022/09/17 07:05:29;;;;;;;2.90;2.70;;;;;;;10.21;100.00;153982.41;5032330;28;20756;-75
2022/09/17 07:07:56;;;;;;;4.57;2.40;;;;;;;10.24;100.00;153990.19;5033300;28;20494;-74
2022/09/17 07:10:23;;;;;;;6.70;3.10;;;;;;;10.23;100.00;153987.56;5042601;28;20551;-75
2022/09/17 07:12:49;;;;;;;4.07;2.60;;;;;;;10.15;100.00;153966.88;5045569;28;20455;-74
2022/09/17 07:15:16;;;;;;;3.20;2.83;;;;;;;10.15;100.00;153965.56;5084564;28;20964;-75
2022/09/17 07:17:43;;;;;;;3.37;2.87;;;;;;;10.19;100.00;153975.94;5067069;28;20796;-76
2022/09/17 07:20:12;;;;;;;3.60;2.83;;;;;;;10.13;100.00;153960.41;5031259;28;20447;-75
2022/09/17 07:22:38;;;;;;;3.40;2.60;;;;;;;10.07;100.00;153944.81;5030475;28;20471;-76
2022/09/17 07:25:06;;;;;;;3.33;2.80;;;;;;;10.05;100.00;153940.94;5038768;28;20439;-75
2022/09/17 07:27:33;;;;;;;3.10;2.80;;;;;;;9.99;100.00;153924.09;5052186;28;20492;-76
2022/09/17 07:29:59;;;;;;;6.90;3.00;;;;;;;9.98;100.00;153922.78;5081695;28;20458;-75
2022/09/17 07:32:29;;;;;;;5.10;2.47;;;;;;;9.95;100.00;153913.75;5050070;28;20444;-76
2022/09/17 07:34:56;;;;;;;5.80;2.13;;;;;;;9.93;100.00;153908.59;5083596;28;20431;-75
2022/09/17 07:37:24;;;;;;;2.57;2.37;;;;;;;9.84;100.00;153885.28;5083165;28;20458;-75
2022/09/17 07:39:50;;;;;;;5.27;2.80;;;;;;;9.85;100.00;153887.88;5055060;28;20485;-76
2022/09/17 07:42:17;;;;;;;3.27;2.50;;;;;;;9.86;100.00;153891.75;5051402;28;20561;-76
2022/09/17 07:44:45;;;;;;;3.20;2.90;;;;;;;9.82;100.00;153881.41;5051521;28;20431;-76
2022/09/17 07:47:12;;;;;;;4.37;2.93;;;;;;;9.88;100.00;153895.59;5051103;28;20465;-76
2022/09/17 07:49:38;;;;;;;4.03;2.90;;;;;;;9.94;100.00;153911.16;5054191;28;20996;-75
2022/09/17 07:52:05;;;;;;;2.77;2.57;;;;;;;9.95;100.00;153913.75;5035995;28;20482;-75
2022/09/17 07:54:33;;;;;;;3.50;2.90;;;;;;;9.95;100.00;153913.75;5063908;28;20451;-76
2022/09/17 07:57:00;;;;;;;4.30;2.53;;;;;;;9.90;100.00;153900.81;5037586;28;20871;-76
2022/09/17 07:59:26;;;;;;;4.90;2.70;;;;;;;9.83;100.00;153883.97;5050553;28;20445;-76
2022/09/17 08:01:53;;;;;;;5.30;2.93;;;;;;;9.74;100.00;153861.97;5051334;28;20477;-75
2022/09/17 08:04:20;;;;;;;4.07;2.73;;;;;;;9.71;100.00;153852.94;5059234;28;20508;-76
2022/09/17 08:06:47;;;;;;;3.40;2.70;;;;;;;9.72;100.00;153856.81;5045946;28;20561;-76
2022/09/17 08:09:15;;;;;;;2.80;2.30;;;;;;;9.78;100.00;153872.34;5047835;28;20458;-76
2022/09/17 08:11:43;;;;;;;5.53;2.50;;;;;;;9.86;100.00;153891.75;5083324;28;20497;-76
2022/09/17 08:14:12;;;;;;;2.83;2.53;;;;;;;9.92;100.00;153907.28;5083330;28;20427;-76
2022/09/17 08:16:39;;;;;;;3.87;2.37;;;;;;;9.92;100.00;153906.00;5074306;28;20452;-75
2022/09/17 08:19:06;;;;;;;3.90;2.30;;;;;;;9.90;100.00;153900.81;5044431;28;20545;-76
2022/09/17 08:21:32;;;;;;;5.43;2.47;;;;;;;9.96;100.00;153916.31;5063372;28;20458;-76
2022/09/17 08:23:59;;;;;;;3.67;2.53;;;;;;;9.96;100.00;153917.63;5050278;28;20474;-76
2022/09/17 08:26:26;;;;;;;2.97;2.67;;;;;;;9.93;100.00;153908.59;5043423;28;20455;-75
2022/09/17 08:28:55;;;;;;;3.43;2.83;;;;;;;9.99;100.00;153925.38;5043116;28;20453;-85
2022/09/17 08:31:27;;;;;;;5.20;4.00;;;;;;;10.05;100.00;153939.63;5030350;28;20455;-85
2022/09/17 08:33:54;;;;;;;3.10;2.73;;;;;;;10.04;100.00;153937.03;5080405;28;20513;-85
2022/09/17 08:36:21;;;;;;;6.73;2.80;;;;;;;10.07;100.00;153944.81;5051569;28;20461;-85
2022/09/17 08:38:52;;;;;;;7.00;3.37;;;;;;;10.12;100.00;153957.72;5088727;28;20482;-85
2022/09/17 08:41:24;;;;;;;6.73;3.13;;;;;;;10.19;100.00;153977.19;5090685;28;20929;-85
2022/09/17 08:44:01;;;;;;;5.00;3.00;;;;;;;10.29;100.00;154003.13;5036351;28;20465;-85
2022/09/17 08:46:31;;;;;;;7.20;2.90;;;;;;;10.32;100.00;154009.59;5051610;28;20446;-85
2022/09/17 08:49:05;;;;;;;3.63;2.60;;;;;;;10.49;100.00;154052.28;5047969;28;20845;-84
2022/09/17 08:51:38;;;;;;;4.63;3.33;;;;;;;10.48;100.00;154051.03;5068879;28;20455;-84
2022/09/17 08:54:11;;;;;;;4.97;2.90;;;;;;;10.47;100.00;154047.13;5063183;28;20428;-85
2022/09/17 08:56:38;;;;;;;3.27;2.90;;;;;;;10.62;100.00;154087.25;5078255;28;20723;-84
2022/09/17 08:59:17;;;;;;;7.40;3.10;;;;;;;10.81;100.00;154135.16;5058753;28;20457;-84
2022/09/17 09:01:52;;;;;;;4.80;2.80;;;;;;;10.90;100.00;154158.50;5065773;28;20453;-84
2022/09/17 09:04:46;;;;;;;4.60;2.40;;;;;;;11.01;100.00;154188.25;5051923;28;20885;-84
2022/09/17 09:07:16;;;;;;;3.10;2.77;;;;;;;11.22;100.00;154240.09;5054426;28;20513;-84
2022/09/17 09:09:46;;;;;;;4.50;3.00;;;;;;;11.40;100.00;154286.72;5049773;28;20439;-84
2022/09/17 09:12:17;;;;;;;5.23;3.03;;;;;;;11.54;100.00;154323.03;5084017;28;20450;-83
2022/09/17 09:14:50;;;;;;;4.07;2.73;;;;;;;11.64;100.00;154348.94;5083818;28;20836;-84
2022/09/17 09:17:17;;;;;;;4.67;2.70;;;;;;;11.68;100.00;154357.97;5049963;28;20478;-84
2022/09/17 09:19:45;;;;;;;5.00;2.90;;;;;;;11.81;100.00;154391.75;5062934;28;20546;-84
2022/09/17 09:22:23;;;;;;;3.90;3.00;;;;;;;11.84;100.00;154400.78;5031138;28;20526;-84
2022/09/17 09:24:54;;;;;;;6.03;2.57;;;;;;;11.89;100.00;154412.44;5057572;28;21007;-84
2022/09/17 09:27:24;;;;;;;3.47;2.40;;;;;;;11.86;100.00;154405.97;5039643;28;20458;-84
2022/09/17 09:30:02;;;;;;;3.20;2.60;;;;;;;11.96;100.00;154431.94;5049321;28;20877;-84
2022/09/17 09:32:41;;;;;;;3.30;2.27;;;;;;;12.08;100.00;154463.03;5059401;28;20937;-84
2022/09/17 09:35:16;;;;;;;3.60;2.53;;;;;;;12.16;100.00;154483.78;5046507;28;20442;-83
2022/09/17 09:37:44;;;;;;;4.50;2.83;;;;;;;12.23;100.00;154501.91;5052096;28;20545;-84
2022/09/17 09:40:23;;;;;;;6.37;3.00;;;;;;;12.26;100.00;154507.13;5069254;28;20431;-84
2022/09/17 09:42:50;;;;;;;4.50;2.47;;;;;;;12.29;100.00;154516.16;5051528;28;20434;-84
2022/09/17 09:45:29;;;;;;;4.63;2.67;;;;;;;12.17;99.43;154486.38;5054062;28;20439;-84
2022/09/17 09:48:00;;;;;;;5.60;2.83;;;;;;;12.15;99.92;154481.16;5042537;28;20454;-84
2022/09/17 09:50:43;;;;;;;4.83;2.90;;;;;;;12.05;99.97;154453.94;5092685;28;20449;-84
2022/09/17 09:53:17;;;;;;;5.30;2.83;;;;;;;12.06;100.00;154457.84;5048600;28;20749;-84
2022/09/17 09:56:02;;;;;;;4.50;2.87;;;;;;;12.01;100.00;154444.91;5052786;28;20533;-84
2022/09/17 09:58:35;;;;;;;3.80;2.63;;;;;;;12.04;100.00;154452.69;5084562;28;20458;-83
2022/09/17 10:01:08;;;;;;;3.70;2.60;;;;;;;11.93;100.00;154422.84;5052566;28;20502;-84
2022/09/17 10:03:36;;;;;;;5.00;3.13;;;;;;;11.93;100.00;154424.16;5062354;28;20560;-84
2022/09/17 10:06:04;;;;;;;4.33;2.43;;;;;;;11.92;100.00;154421.53;5058216;28;20545;-84
2022/09/17 10:08:33;;;;;;;4.43;3.20;;;;;;;11.82;96.84;154395.63;5088571;28;20431;-84
2022/09/17 10:11:01;;;;;;;7.80;2.90;;;;;;;11.77;100.00;154382.66;5059651;28;20526;-84
2022/09/17 10:13:30;;;;;;;5.33;3.23;;;;;;;11.66;98.59;154352.78;5053538;28;20921;-84
2022/09/17 10:15:57;;;;;;;4.17;2.50;;;;;;;11.67;99.88;154355.41;5053342;28;20525;-84
2022/09/17 10:18:25;;;;;;;4.77;2.90;;;;;;;11.77;100.00;154381.38;5085267;28;20537;-75
2022/09/17 10:20:54;;;;;;;5.53;3.10;;;;;;;11.84;100.00;154400.78;5085344;28;20455;-75
2022/09/17 10:23:22;;;;;;;2.87;2.57;;;;;;;11.89;96.87;154413.75;5067321;28;20485;-76
2022/09/17 10:25:50;;;;;;;5.43;3.00;;;;;;;12.08;96.40;154463.03;5064488;28;20436;-76
2022/09/17 10:28:44;;;;;;;5.20;3.30;;;;;;;12.20;98.22;154494.13;5053049;28;20541;-76
2022/09/17 10:31:11;;;;;;;3.10;2.30;;;;;;;12.28;95.96;154513.59;5048360;28;20451;-76
2022/09/17 10:33:52;;;;;;;3.63;2.40;;;;;;;12.44;94.80;154553.78;5040836;28;20446;-76
2022/09/17 10:36:38;;;;;;;4.80;2.50;;;;;;;12.50;93.19;154569.31;5073702;28;20459;-76
2022/09/17 10:39:19;;;;;;;3.63;2.53;;;;;;;12.67;92.83;154613.44;5064699;28;20518;-76
2022/09/17 10:41:54;;;;;;;3.67;2.93;;;;;;;12.79;96.82;154645.84;5048806;28;20451;-76
2022/09/17 10:44:22;;;;;;;4.10;2.60;;;;;;;12.81;94.47;154649.75;5050462;28;20462;-75
2022/09/17 10:46:48;;;;;;;2.77;2.23;;;;;;;12.83;92.10;154656.25;5052159;28;20543;-75
2022/09/17 10:49:22;;;;;;;2.83;2.10;;;;;;;12.83;92.77;154654.94;5051734;28;20482;-84
2022/09/17 10:51:49;;;;;;;2.83;2.50;;;;;;;12.83;90.95;154654.94;5063449;28;20550;-85
2022/09/17 10:54:40;;;;;;;4.30;2.83;;;;;;;12.80;90.19;154648.47;5056711;28;20450;-85
2022/09/17 10:57:07;;;;;;;4.67;3.10;;;;;;;12.87;89.22;154665.28;5085275;28;20569;-84
2022/09/17 10:59:50;;;;;;;3.50;2.43;;;;;;;12.81;87.79;154649.75;5052014;28;20461;-84
2022/09/17 11:02:31;;;;;;;2.33;2.00;;;;;;;12.84;87.99;154657.50;5056356;28;20920;-84
2022/09/17 11:05:20;;;;;;;5.83;2.43;;;;;;;12.91;90.99;154675.69;5036112;28;20479;-84
2022/09/17 11:07:52;;;;;;;4.70;2.50;;;;;;;13.04;90.65;154708.13;5028074;28;20448;-84
2022/09/17 11:10:25;;;;;;;4.10;2.47;;;;;;;13.14;83.69;154734.09;5045291;28;20861;-84
2022/09/17 11:13:04;;;;;;;2.37;1.60;;;;;;;13.20;84.82;154749.69;5033586;28;20459;-84
2022/09/17 11:15:40;;;;;;;2.77;1.90;;;;;;;13.21;84.17;154753.56;5032402;28;20547;-84
2022/09/17 11:18:36;;;;;;;3.73;2.13;;;;;;;13.15;84.77;154736.72;5075278;28;20450;-85
2022/09/17 11:21:26;;;;;;;3.50;2.67;;;;;;;13.07;88.80;154717.25;5053369;28;20451;-84
2022/09/17 11:24:07;;;;;;;2.67;1.70;;;;;;;13.14;82.76;154735.41;5035921;28;20455;-84
2022/09/17 11:26:39;;;;;;;2.23;1.50;;;;;;;13.21;82.69;154752.31;5068555;28;20863;-85
2022/09/17 11:29:19;;;;;;;2.40;1.80;;;;;;;13.27;80.97;154767.84;5052153;28;20795;-83
2022/09/17 11:31:50;;;;;;;3.20;2.27;;;;;;;13.30;87.28;154776.94;5086785;28;20462;-84
2022/09/17 11:34:25;;;;;;;2.13;1.90;;;;;;;13.25;82.59;154763.97;5052976;28;20475;-84
2022/09/17 11:37:01;;;;;;;2.10;1.80;;;;;;;13.34;82.26;154786.03;5054454;28;20487;-84